sensor_id;sensor_type;location;lat;lon;timestamp;P1;durP1;ratioP1;P2;durP2;ratioP2
43413;SDS011;73638;49.676;8.606;2024-01-30T00:00:29;6.1568;;;12.2824;;
43413;SDS011;73638;49.676;8.606;2024-01-30T00:05:35;6.7148;;;12.3235;;
43413;SDS011;73638;49.676;8.606;2024-01-30T00:10:42;6.0303;;;11.0799;;
43413;SDS011;73638;49.676;8.606;2024-01-30T00:15:49;6.1369;;;11.7568;;
43413;SDS011;73638;49.676;8.606;2024-01-30T00:20:55;7.2626;;;13.078;;
43413;SDS011;73638;49.676;8.606;2024-01-30T00:26:02;6.1608;;;11.0204;;
43413;SDS011;73638;49.676;8.606;2024-01-30T00:31:08;5.8172;;;10.2319;;
43413;SDS011;73638;49.676;8.606;2024-01-30T00:36:14;6.44;;;13.0644;;
43413;SDS011;73638;49.676;8.606;2024-01-30T00:41:21;6.4753;;;12.2599;;
43413;SDS011;73638;49.676;8.606;2024-01-30T00:46:28;5.9083;;;9.9459;;
43413;SDS011;73638;49.676;8.606;2024-01-30T00:51:34;6.0797;;;11.4713;;
43413;SDS011;73638;49.676;8.606;2024-01-30T00:56:40;6.1892;;;12.2022;;
43413;SDS011;73638;49.676;8.606;2024-01-30T01:01:47;5.7683;;;10.5495;;
43413;SDS011;73638;49.676;8.606;2024-01-30T01:06:53;5.7429;;;10.0397;;
43413;SDS011;73638;49.676;8.606;2024-01-30T01:11:59;5.9478;;;11.9363;;
43413;SDS011;73638;49.676;8.606;2024-01-30T01:17:06;5.3933;;;7.5533;;
43413;SDS011;73638;49.676;8.606;2024-01-30T01:22:17;6.3103;;;12.3889;;
43413;SDS011;73638;49.676;8.606;2024-01-30T01:27:19;5.9641;;;9.4994;;
43413;SDS011;73638;49.676;8.606;2024-01-30T01:32:25;5.301;;;10.1816;;
43413;SDS011;73638;49.676;8.606;2024-01-30T01:37:42;5.5505;;;10.5722;;
43413;SDS011;73638;49.676;8.606;2024-01-30T01:42:43;5.9055;;;9.4153;;
43413;SDS011;73638;49.676;8.606;2024-01-30T01:47:45;5.2999;;;9.2136;;
43413;SDS011;73638;49.676;8.606;2024-01-30T01:52:51;4.9304;;;8.4545;;
43413;SDS011;73638;49.676;8.606;2024-01-30T01:57:58;4.7591;;;8.3779;;
43413;SDS011;73638;49.676;8.606;2024-01-30T02:03:04;5.0644;;;9.2456;;
43413;SDS011;73638;49.676;8.606;2024-01-30T02:08:11;5.0166;;;7.8035;;
43413;SDS011;73638;49.676;8.606;2024-01-30T02:13:17;4.988;;;7.73;;
43413;SDS011;73638;49.676;8.606;2024-01-30T02:18:24;4.3701;;;8.29;;
43413;SDS011;73638;49.676;8.606;2024-01-30T02:23:30;4.5203;;;6.9683;;
43413;SDS011;73638;49.676;8.606;2024-01-30T02:28:36;5.5018;;;11.4921;;
43413;SDS011;73638;49.676;8.606;2024-01-30T02:33:43;4.6276;;;8.8911;;
43413;SDS011;73638;49.676;8.606;2024-01-30T02:38:49;4.0763;;;6.4751;;
43413;SDS011;73638;49.676;8.606;2024-01-30T02:43:56;4.5925;;;6.8012;;
43413;SDS011;73638;49.676;8.606;2024-01-30T02:49:02;4.9664;;;8.1359;;
43413;SDS011;73638;49.676;8.606;2024-01-30T02:54:08;4.7317;;;7.3564;;
43413;SDS011;73638;49.676;8.606;2024-01-30T02:59:14;4.5347;;;7.3116;;
43413;SDS011;73638;49.676;8.606;2024-01-30T03:04:21;4.9813;;;10.573;;
43413;SDS011;73638;49.676;8.606;2024-01-30T03:09:27;4.925;;;9.0562;;
43413;SDS011;73638;49.676;8.606;2024-01-30T03:14:34;5.1415;;;8.7566;;
43413;SDS011;73638;49.676;8.606;2024-01-30T03:19:40;4.7149;;;8.7068;;
43413;SDS011;73638;49.676;8.606;2024-01-30T03:24:47;3.9279;;;6.9004;;
43413;SDS011;73638;49.676;8.606;2024-01-30T03:29:53;4.7527;;;8.5993;;
43413;SDS011;73638;49.676;8.606;2024-01-30T03:35:00;4.6802;;;9.0656;;
43413;SDS011;73638;49.676;8.606;2024-01-30T03:40:07;4.1257;;;7.2871;;
43413;SDS011;73638;49.676;8.606;2024-01-30T03:45:13;4.3535;;;6.8601;;
43413;SDS011;73638;49.676;8.606;2024-01-30T03:50:19;4.1403;;;10.0738;;
43413;SDS011;73638;49.676;8.606;2024-01-30T03:55:26;4.6508;;;10.4149;;
43413;SDS011;73638;49.676;8.606;2024-01-30T04:00:32;4.6584;;;6.4563;;
43413;SDS011;73638;49.676;8.606;2024-01-30T04:05:38;4.4808;;;9.2275;;
43413;SDS011;73638;49.676;8.606;2024-01-30T04:10:44;4.3947;;;6.3518;;
43413;SDS011;73638;49.676;8.606;2024-01-30T04:15:51;4.3088;;;8.0411;;
43413;SDS011;73638;49.676;8.606;2024-01-30T04:20:57;4.157;;;7.1397;;
43413;SDS011;73638;49.676;8.606;2024-01-30T04:26:04;4.8087;;;8.728;;
43413;SDS011;73638;49.676;8.606;2024-01-30T04:31:10;4.4853;;;9.6757;;
43413;SDS011;73638;49.676;8.606;2024-01-30T04:36:16;4.9344;;;29.0554;;
43413;SDS011;73638;49.676;8.606;2024-01-30T04:41:23;4.6505;;;9.3014;;
43413;SDS011;73638;49.676;8.606;2024-01-30T04:46:29;4.1777;;;7.5509;;
43413;SDS011;73638;49.676;8.606;2024-01-30T04:51:36;4.7574;;;10.2024;;
43413;SDS011;73638;49.676;8.606;2024-01-30T04:56:42;4.746;;;7.2336;;
43413;SDS011;73638;49.676;8.606;2024-01-30T05:01:49;5.0121;;;7.2922;;
43413;SDS011;73638;49.676;8.606;2024-01-30T05:06:56;5.077;;;11.6095;;
43413;SDS011;73638;49.676;8.606;2024-01-30T05:12:02;5.234;;;8.2706;;
43413;SDS011;73638;49.676;8.606;2024-01-30T05:17:08;5.7692;;;9.967;;
43413;SDS011;73638;49.676;8.606;2024-01-30T05:22:15;5.8325;;;9.196;;
43413;SDS011;73638;49.676;8.606;2024-01-30T05:27:21;5.2404;;;13.591;;
43413;SDS011;73638;49.676;8.606;2024-01-30T05:32:28;5.4688;;;10.666;;
43413;SDS011;73638;49.676;8.606;2024-01-30T05:37:34;5.7029;;;10.1157;;
43413;SDS011;73638;49.676;8.606;2024-01-30T05:42:41;5.6515;;;9.2129;;
43413;SDS011;73638;49.676;8.606;2024-01-30T05:47:48;7.3651;;;12.8342;;
43413;SDS011;73638;49.676;8.606;2024-01-30T05:52:54;6.3518;;;11.0581;;
43413;SDS011;73638;49.676;8.606;2024-01-30T05:58:01;6.0154;;;9.3753;;
43413;SDS011;73638;49.676;8.606;2024-01-30T06:03:07;7.5141;;;12.7513;;
43413;SDS011;73638;49.676;8.606;2024-01-30T06:08:13;8.2599;;;19.9569;;
43413;SDS011;73638;49.676;8.606;2024-01-30T06:13:20;7.7745;;;13.8634;;
43413;SDS011;73638;49.676;8.606;2024-01-30T06:18:26;8.6607;;;17.4801;;
43413;SDS011;73638;49.676;8.606;2024-01-30T06:23:33;9.0466;;;14.9386;;
43413;SDS011;73638;49.676;8.606;2024-01-30T06:28:39;9.0631;;;17.116;;
43413;SDS011;73638;49.676;8.606;2024-01-30T06:33:46;8.4069;;;14.895;;
43413;SDS011;73638;49.676;8.606;2024-01-30T06:38:52;9.3983;;;16.8073;;
43413;SDS011;73638;49.676;8.606;2024-01-30T06:43:58;8.7884;;;13.1041;;
43413;SDS011;73638;49.676;8.606;2024-01-30T06:49:05;8.9035;;;16.7926;;
43413;SDS011;73638;49.676;8.606;2024-01-30T06:54:12;9.9015;;;15.8862;;
43413;SDS011;73638;49.676;8.606;2024-01-30T06:59:18;9.8645;;;18.3577;;
43413;SDS011;73638;49.676;8.606;2024-01-30T07:04:25;10.4348;;;22.4697;;
43413;SDS011;73638;49.676;8.606;2024-01-30T07:09:31;10.3452;;;17.7565;;
43413;SDS011;73638;49.676;8.606;2024-01-30T07:14:38;9.577;;;18.0578;;
43413;SDS011;73638;49.676;8.606;2024-01-30T07:19:45;10.2473;;;18.6892;;
43413;SDS011;73638;49.676;8.606;2024-01-30T07:24:51;10.3732;;;16.3322;;
43413;SDS011;73638;49.676;8.606;2024-01-30T07:29:58;11.1385;;;20.2188;;
43413;SDS011;73638;49.676;8.606;2024-01-30T07:35:09;11.0965;;;19.5273;;
43413;SDS011;73638;49.676;8.606;2024-01-30T07:40:11;11.0256;;;20.1834;;
43413;SDS011;73638;49.676;8.606;2024-01-30T07:45:17;11.1827;;;20.6596;;
43413;SDS011;73638;49.676;8.606;2024-01-30T07:50:24;10.7469;;;18.8809;;
43413;SDS011;73638;49.676;8.606;2024-01-30T07:55:31;10.2623;;;18.5429;;
43413;SDS011;73638;49.676;8.606;2024-01-30T08:00:37;9.9236;;;18.8424;;
43413;SDS011;73638;49.676;8.606;2024-01-30T08:05:44;10.3065;;;18.141;;
43413;SDS011;73638;49.676;8.606;2024-01-30T08:10:51;11.4158;;;24.5968;;
43413;SDS011;73638;49.676;8.606;2024-01-30T08:15:57;11.1641;;;18.617;;
43413;SDS011;73638;49.676;8.606;2024-01-30T08:21:04;11.1169;;;19.9602;;
43413;SDS011;73638;49.676;8.606;2024-01-30T08:26:11;10.9552;;;17.3729;;
43413;SDS011;73638;49.676;8.606;2024-01-30T08:31:17;12.2888;;;20.6909;;
43413;SDS011;73638;49.676;8.606;2024-01-30T08:36:24;10.4643;;;19.9858;;
43413;SDS011;73638;49.676;8.606;2024-01-30T08:41:31;10.2672;;;17.8558;;
43413;SDS011;73638;49.676;8.606;2024-01-30T08:46:37;10.5996;;;17.9318;;
43413;SDS011;73638;49.676;8.606;2024-01-30T08:51:44;9.5597;;;14.9989;;
43413;SDS011;73638;49.676;8.606;2024-01-30T08:56:51;10.3832;;;15.9038;;
43413;SDS011;73638;49.676;8.606;2024-01-30T09:02:11;10.5295;;;17.9369;;
43413;SDS011;73638;49.676;8.606;2024-01-30T09:07:04;11.0704;;;18.8235;;
43413;SDS011;73638;49.676;8.606;2024-01-30T09:12:11;10.6075;;;18.9874;;
43413;SDS011;73638;49.676;8.606;2024-01-30T09:17:18;9.1097;;;13.6243;;
43413;SDS011;73638;49.676;8.606;2024-01-30T09:22:24;9.394;;;14.4699;;
43413;SDS011;73638;49.676;8.606;2024-01-30T09:27:31;9.624;;;18.2067;;
43413;SDS011;73638;49.676;8.606;2024-01-30T09:32:39;8.8835;;;13.5209;;
43413;SDS011;73638;49.676;8.606;2024-01-30T09:37:45;9.7038;;;17.4959;;
43413;SDS011;73638;49.676;8.606;2024-01-30T09:42:51;8.6877;;;16.7505;;
43413;SDS011;73638;49.676;8.606;2024-01-30T09:47:58;8.5714;;;15.8971;;
43413;SDS011;73638;49.676;8.606;2024-01-30T09:53:04;8.6157;;;17.3862;;
43413;SDS011;73638;49.676;8.606;2024-01-30T09:58:11;7.8914;;;13.6385;;
43413;SDS011;73638;49.676;8.606;2024-01-30T10:03:18;8.629;;;13.8712;;
43413;SDS011;73638;49.676;8.606;2024-01-30T10:08:25;7.6662;;;13.1157;;
43413;SDS011;73638;49.676;8.606;2024-01-30T10:13:31;8.001;;;12.1235;;
43413;SDS011;73638;49.676;8.606;2024-01-30T10:18:40;7.7086;;;11.5349;;
43413;SDS011;73638;49.676;8.606;2024-01-30T10:23:45;7.5576;;;15.2401;;
43413;SDS011;73638;49.676;8.606;2024-01-30T10:28:52;8.214;;;12.1666;;
43413;SDS011;73638;49.676;8.606;2024-01-30T10:34:16;7.2634;;;15.466;;
43413;SDS011;73638;49.676;8.606;2024-01-30T10:39:06;6.7767;;;15.1306;;
43413;SDS011;73638;49.676;8.606;2024-01-30T10:44:13;7.4679;;;14.7778;;
43413;SDS011;73638;49.676;8.606;2024-01-30T10:49:20;7.4582;;;12.3216;;
43413;SDS011;73638;49.676;8.606;2024-01-30T10:54:27;6.9353;;;10.2752;;
43413;SDS011;73638;49.676;8.606;2024-01-30T10:59:33;7.8023;;;13.3032;;
43413;SDS011;73638;49.676;8.606;2024-01-30T11:04:41;7.5788;;;16.0711;;
43413;SDS011;73638;49.676;8.606;2024-01-30T11:09:48;7.6558;;;12.2671;;
43413;SDS011;73638;49.676;8.606;2024-01-30T11:15:01;6.8422;;;11.713;;
43413;SDS011;73638;49.676;8.606;2024-01-30T11:20:01;7.1741;;;12.7237;;
43413;SDS011;73638;49.676;8.606;2024-01-30T11:25:10;7.2782;;;15.4555;;
43413;SDS011;73638;49.676;8.606;2024-01-30T11:30:22;6.9514;;;10.1773;;
43413;SDS011;73638;49.676;8.606;2024-01-30T11:35:21;6.677;;;11.6688;;
43413;SDS011;73638;49.676;8.606;2024-01-30T11:40:28;6.2832;;;9.8078;;
43413;SDS011;73638;49.676;8.606;2024-01-30T11:45:35;7.1057;;;12.0919;;
43413;SDS011;73638;49.676;8.606;2024-01-30T11:50:41;5.8142;;;8.8784;;
43413;SDS011;73638;49.676;8.606;2024-01-30T11:55:49;6.999;;;15.6091;;
43413;SDS011;73638;49.676;8.606;2024-01-30T12:00:55;6.3128;;;10.4568;;
43413;SDS011;73638;49.676;8.606;2024-01-30T12:06:02;6.4298;;;9.4541;;
43413;SDS011;73638;49.676;8.606;2024-01-30T12:11:08;6.7134;;;13.5409;;
43413;SDS011;73638;49.676;8.606;2024-01-30T12:16:15;6.7341;;;12.6539;;
43413;SDS011;73638;49.676;8.606;2024-01-30T12:21:22;5.9062;;;8.4003;;
43413;SDS011;73638;49.676;8.606;2024-01-30T12:26:28;6.5193;;;13.3705;;
43413;SDS011;73638;49.676;8.606;2024-01-30T12:31:35;7.1478;;;11.4958;;
43413;SDS011;73638;49.676;8.606;2024-01-30T12:36:42;6.7686;;;12.7089;;
43413;SDS011;73638;49.676;8.606;2024-01-30T12:41:48;6.4457;;;11.6048;;
43413;SDS011;73638;49.676;8.606;2024-01-30T12:46:55;6.6395;;;11.8643;;
43413;SDS011;73638;49.676;8.606;2024-01-30T12:52:02;7.9497;;;11.4776;;
43413;SDS011;73638;49.676;8.606;2024-01-30T12:57:09;6.3466;;;12.5521;;
43413;SDS011;73638;49.676;8.606;2024-01-30T13:02:16;6.8667;;;11.6355;;
43413;SDS011;73638;49.676;8.606;2024-01-30T13:07:23;7.0184;;;14.4219;;
43413;SDS011;73638;49.676;8.606;2024-01-30T13:12:30;6.6635;;;14.4219;;
43413;SDS011;73638;49.676;8.606;2024-01-30T13:17:37;6.873;;;14.0684;;
43413;SDS011;73638;49.676;8.606;2024-01-30T13:22:46;6.6817;;;9.5579;;
43413;SDS011;73638;49.676;8.606;2024-01-30T13:27:50;7.1296;;;12.2636;;
43413;SDS011;73638;49.676;8.606;2024-01-30T13:32:57;6.8796;;;9.9753;;
43413;SDS011;73638;49.676;8.606;2024-01-30T13:38:04;7.3617;;;14.0388;;
43413;SDS011;73638;49.676;8.606;2024-01-30T13:43:10;7.6043;;;10.6222;;
43413;SDS011;73638;49.676;8.606;2024-01-30T13:48:17;7.3754;;;14.1838;;
43413;SDS011;73638;49.676;8.606;2024-01-30T13:53:24;7.2901;;;12.4402;;
43413;SDS011;73638;49.676;8.606;2024-01-30T13:58:30;8.3092;;;13.5702;;
43413;SDS011;73638;49.676;8.606;2024-01-30T14:03:37;6.4499;;;11.5095;;
43413;SDS011;73638;49.676;8.606;2024-01-30T14:08:50;6.7438;;;16.1881;;
43413;SDS011;73638;49.676;8.606;2024-01-30T14:13:50;7.1447;;;10.9816;;
43413;SDS011;73638;49.676;8.606;2024-01-30T14:18:57;6.7886;;;11.8112;;
43413;SDS011;73638;49.676;8.606;2024-01-30T14:24:04;6.0646;;;9.4024;;
43413;SDS011;73638;49.676;8.606;2024-01-30T14:29:11;6.6584;;;10.5888;;
43413;SDS011;73638;49.676;8.606;2024-01-30T14:34:18;5.7807;;;9.4834;;
43413;SDS011;73638;49.676;8.606;2024-01-30T14:39:24;6.5129;;;12.334;;
43413;SDS011;73638;49.676;8.606;2024-01-30T14:44:31;5.8799;;;8.4739;;
43413;SDS011;73638;49.676;8.606;2024-01-30T14:49:37;6.3733;;;11.9046;;
43413;SDS011;73638;49.676;8.606;2024-01-30T14:54:44;6.6394;;;11.8213;;
43413;SDS011;73638;49.676;8.606;2024-01-30T14:59:51;6.3065;;;13.1815;;
43413;SDS011;73638;49.676;8.606;2024-01-30T15:04:58;5.9259;;;8.6737;;
43413;SDS011;73638;49.676;8.606;2024-01-30T15:10:05;5.9896;;;11.7383;;
43413;SDS011;73638;49.676;8.606;2024-01-30T15:15:12;5.6148;;;10.0241;;
43413;SDS011;73638;49.676;8.606;2024-01-30T15:20:18;6.3096;;;11.5454;;
43413;SDS011;73638;49.676;8.606;2024-01-30T15:25:25;6.2014;;;10.6845;;
43413;SDS011;73638;49.676;8.606;2024-01-30T15:30:32;5.6664;;;10.0342;;
43413;SDS011;73638;49.676;8.606;2024-01-30T15:35:39;6.3006;;;13.0232;;
43413;SDS011;73638;49.676;8.606;2024-01-30T15:40:45;6.1907;;;9.2733;;
43413;SDS011;73638;49.676;8.606;2024-01-30T15:45:52;6.1774;;;11.826;;
43413;SDS011;73638;49.676;8.606;2024-01-30T15:50:59;6.6947;;;10.9055;;
43413;SDS011;73638;49.676;8.606;2024-01-30T15:56:05;5.9401;;;10.6698;;
43413;SDS011;73638;49.676;8.606;2024-01-30T16:01:12;5.6366;;;8.3279;;
43413;SDS011;73638;49.676;8.606;2024-01-30T16:06:19;6.1304;;;10.9785;;
43413;SDS011;73638;49.676;8.606;2024-01-30T16:11:26;6.3119;;;12.8718;;
43413;SDS011;73638;49.676;8.606;2024-01-30T16:16:32;5.3038;;;12.4074;;
43413;SDS011;73638;49.676;8.606;2024-01-30T16:21:39;5.7308;;;10.0731;;
43413;SDS011;73638;49.676;8.606;2024-01-30T16:26:46;5.4698;;;10.4077;;
43413;SDS011;73638;49.676;8.606;2024-01-30T16:31:53;5.3455;;;9.2578;;
43413;SDS011;73638;49.676;8.606;2024-01-30T16:37:02;6.0745;;;12.0294;;
43413;SDS011;73638;49.676;8.606;2024-01-30T16:42:08;5.3862;;;8.858;;
43413;SDS011;73638;49.676;8.606;2024-01-30T16:47:15;6.2817;;;12.1554;;
43413;SDS011;73638;49.676;8.606;2024-01-30T16:52:22;5.9895;;;9.1804;;
43413;SDS011;73638;49.676;8.606;2024-01-30T16:57:29;6.1962;;;9.6005;;
43413;SDS011;73638;49.676;8.606;2024-01-30T17:02:35;6.4288;;;12.6708;;
43413;SDS011;73638;49.676;8.606;2024-01-30T17:07:42;6.3447;;;9.6542;;
43413;SDS011;73638;49.676;8.606;2024-01-30T17:12:49;5.7754;;;13.5309;;
43413;SDS011;73638;49.676;8.606;2024-01-30T17:17:58;6.0589;;;13.6219;;
43413;SDS011;73638;49.676;8.606;2024-01-30T17:23:04;6.184;;;12.1033;;
43413;SDS011;73638;49.676;8.606;2024-01-30T17:28:11;5.6567;;;9.8843;;
43413;SDS011;73638;49.676;8.606;2024-01-30T17:33:18;6.4935;;;12.4622;;
43413;SDS011;73638;49.676;8.606;2024-01-30T17:38:24;6.5836;;;11.2814;;
43413;SDS011;73638;49.676;8.606;2024-01-30T17:43:31;6.4394;;;12.0676;;
43413;SDS011;73638;49.676;8.606;2024-01-30T17:48:38;6.8239;;;13.4684;;
43413;SDS011;73638;49.676;8.606;2024-01-30T17:53:44;7.165;;;12.3688;;
43413;SDS011;73638;49.676;8.606;2024-01-30T17:58:51;7.1473;;;11.0275;;
43413;SDS011;73638;49.676;8.606;2024-01-30T18:03:58;7.4298;;;11.3301;;
43413;SDS011;73638;49.676;8.606;2024-01-30T18:09:06;7.0859;;;12.799;;
43413;SDS011;73638;49.676;8.606;2024-01-30T18:14:12;6.8847;;;13.076;;
43413;SDS011;73638;49.676;8.606;2024-01-30T18:19:18;7.0165;;;10.0458;;
43413;SDS011;73638;49.676;8.606;2024-01-30T18:24:25;7.6611;;;17.3127;;
43413;SDS011;73638;49.676;8.606;2024-01-30T18:29:31;7.0254;;;10.5989;;
43413;SDS011;73638;49.676;8.606;2024-01-30T18:34:38;7.1258;;;13.3143;;
43413;SDS011;73638;49.676;8.606;2024-01-30T18:39:45;7.736;;;11.9007;;
43413;SDS011;73638;49.676;8.606;2024-01-30T18:44:52;7.8689;;;16.259;;
43413;SDS011;73638;49.676;8.606;2024-01-30T18:49:58;7.3286;;;11.0958;;
43413;SDS011;73638;49.676;8.606;2024-01-30T18:55:05;7.2963;;;12.6165;;
43413;SDS011;73638;49.676;8.606;2024-01-30T19:00:12;8.3857;;;15.4247;;
43413;SDS011;73638;49.676;8.606;2024-01-30T19:05:19;7.7988;;;14.3648;;
43413;SDS011;73638;49.676;8.606;2024-01-30T19:10:39;7.4511;;;12.22;;
43413;SDS011;73638;49.676;8.606;2024-01-30T19:15:34;7.6632;;;11.9955;;
43413;SDS011;73638;49.676;8.606;2024-01-30T19:20:40;8.6748;;;18.5289;;
43413;SDS011;73638;49.676;8.606;2024-01-30T19:25:52;9.0055;;;15.5929;;
43413;SDS011;73638;49.676;8.606;2024-01-30T19:30:53;7.7887;;;12.0867;;
43413;SDS011;73638;49.676;8.606;2024-01-30T19:36:00;7.5068;;;15.2386;;
43413;SDS011;73638;49.676;8.606;2024-01-30T19:41:07;11.1992;;;22.1749;;
43413;SDS011;73638;49.676;8.606;2024-01-30T19:46:13;11.6397;;;21.6585;;
43413;SDS011;73638;49.676;8.606;2024-01-30T19:51:19;10.4553;;;19.136;;
43413;SDS011;73638;49.676;8.606;2024-01-30T19:56:26;8.9336;;;12.9021;;
43413;SDS011;73638;49.676;8.606;2024-01-30T20:01:33;9.0994;;;15.2734;;
43413;SDS011;73638;49.676;8.606;2024-01-30T20:06:42;8.1907;;;12.948;;
43413;SDS011;73638;49.676;8.606;2024-01-30T20:11:47;8.6769;;;19.0968;;
43413;SDS011;73638;49.676;8.606;2024-01-30T20:16:53;8.777;;;14.6101;;
43413;SDS011;73638;49.676;8.606;2024-01-30T20:22:00;8.4445;;;13.3039;;
43413;SDS011;73638;49.676;8.606;2024-01-30T20:27:07;9.0816;;;14.9636;;
43413;SDS011;73638;49.676;8.606;2024-01-30T20:32:13;8.7979;;;13.3215;;
43413;SDS011;73638;49.676;8.606;2024-01-30T20:37:20;8.5981;;;13.3655;;
43413;SDS011;73638;49.676;8.606;2024-01-30T20:42:27;8.2385;;;12.4517;;
43413;SDS011;73638;49.676;8.606;2024-01-30T20:47:36;8.9558;;;15.2817;;
43413;SDS011;73638;49.676;8.606;2024-01-30T20:52:42;9.3005;;;16.0529;;
43413;SDS011;73638;49.676;8.606;2024-01-30T20:57:49;10.3478;;;17.991;;
43413;SDS011;73638;49.676;8.606;2024-01-30T21:02:56;10.8219;;;16.3213;;
43413;SDS011;73638;49.676;8.606;2024-01-30T21:08:03;10.5602;;;23.1741;;
43413;SDS011;73638;49.676;8.606;2024-01-30T21:13:09;10.8996;;;17.2442;;
43413;SDS011;73638;49.676;8.606;2024-01-30T21:18:16;10.6964;;;19.967;;
43413;SDS011;73638;49.676;8.606;2024-01-30T21:23:22;10.5338;;;19.0495;;
43413;SDS011;73638;49.676;8.606;2024-01-30T21:28:29;10.0229;;;19.6275;;
43413;SDS011;73638;49.676;8.606;2024-01-30T21:33:36;9.2656;;;14.7264;;
43413;SDS011;73638;49.676;8.606;2024-01-30T21:38:42;10.3439;;;15.9581;;
43413;SDS011;73638;49.676;8.606;2024-01-30T21:43:49;10.5003;;;17.5884;;
43413;SDS011;73638;49.676;8.606;2024-01-30T21:48:56;9.9467;;;15.49;;
43413;SDS011;73638;49.676;8.606;2024-01-30T21:54:02;10.6642;;;21.9651;;
43413;SDS011;73638;49.676;8.606;2024-01-30T21:59:09;9.8683;;;17.468;;
43413;SDS011;73638;49.676;8.606;2024-01-30T22:04:16;9.878;;;16.7286;;
43413;SDS011;73638;49.676;8.606;2024-01-30T22:09:22;10.057;;;18.799;;
43413;SDS011;73638;49.676;8.606;2024-01-30T22:14:29;9.4844;;;17.6417;;
43413;SDS011;73638;49.676;8.606;2024-01-30T22:19:36;9.4624;;;17.6949;;
43413;SDS011;73638;49.676;8.606;2024-01-30T22:24:42;9.2014;;;17.8403;;
43413;SDS011;73638;49.676;8.606;2024-01-30T22:29:51;7.9458;;;12.6907;;
43413;SDS011;73638;49.676;8.606;2024-01-30T22:34:56;8.819;;;20.1851;;
43413;SDS011;73638;49.676;8.606;2024-01-30T22:40:02;9.6532;;;14.806;;
43413;SDS011;73638;49.676;8.606;2024-01-30T22:45:08;10.0052;;;23.2053;;
43413;SDS011;73638;49.676;8.606;2024-01-30T22:50:15;10.3628;;;16.7895;;
43413;SDS011;73638;49.676;8.606;2024-01-30T22:55:22;10.3413;;;17.8201;;
43413;SDS011;73638;49.676;8.606;2024-01-30T23:00:29;10.9348;;;18.1156;;
43413;SDS011;73638;49.676;8.606;2024-01-30T23:05:36;10.7852;;;20.8488;;
43413;SDS011;73638;49.676;8.606;2024-01-30T23:10:42;10.7985;;;19.0331;;
43413;SDS011;73638;49.676;8.606;2024-01-30T23:15:49;9.6235;;;14.8059;;
43413;SDS011;73638;49.676;8.606;2024-01-30T23:20:56;10.2611;;;14.3842;;
43413;SDS011;73638;49.676;8.606;2024-01-30T23:26:03;10.877;;;14.604;;
43413;SDS011;73638;49.676;8.606;2024-01-30T23:31:09;10.2805;;;14.6996;;
43413;SDS011;73638;49.676;8.606;2024-01-30T23:36:16;9.9172;;;18.1291;;
43413;SDS011;73638;49.676;8.606;2024-01-30T23:41:23;11.221;;;19.5345;;
43413;SDS011;73638;49.676;8.606;2024-01-30T23:46:29;10.5932;;;16.8853;;
43413;SDS011;73638;49.676;8.606;2024-01-30T23:51:36;11.3688;;;17.6092;;
43413;SDS011;73638;49.676;8.606;2024-01-30T23:56:43;11.0457;;;18.2713;;
